CheckWX is a tool to help pilots better visualize weather data.  It is not intended as a substitute for an official pre-flight weather briefing.

08:03:46 UTC

FAEL TAF
Ben Schoeman Airport
East London, South Africa
TAF FAEL 190600Z 1907/1918 VRB03KT 9999 FEW020 TX28/1911Z TN21/1918Z TEMPO 1910/1912 20007KT BECMG 1913/1915 08013KT SCT003

Mar-19@
07:00 UTC

Mar-19 @ 07:00 UTC

Mar-19@
13:00 UTC

Mar-19 @ 13:00 UTC

TAF FAEL 190600Z 1907/1918 VRB03KT 9999 FEW020 TX28/1911Z TN21/1918Z
Wind
  • Variable at 3 KTS
Cloud Levels
  • Few at 2,000' AGL

Mar-19@
10:00 UTC

Mar-19 @ 10:00 UTC

Mar-19@
12:00 UTC

Mar-19 @ 12:00 UTC

TEMPO 1910/1912 20007KT

Temporary

Temporary Changes expected for less than half the time period

Wind
  • 200° at 7 KTS

Mar-19@
13:00 UTC

Mar-19 @ 13:00 UTC

Mar-19@
18:00 UTC

Mar-19 @ 18:00 UTC

BECMG 1913/1915 08013KT SCT003

Becoming

Becoming Conditions expected by Tue, Mar 19, 2019 @ 15:00 UTC

Wind
  • 080° at 13 KTS
Cloud Levels
  • Scattered at 300' AGL